Time;durP1;ratioP1;P1;durP2;ratioP2;P2;SDS_P1;SDS_P2;PMS_P1;PMS_P2;Temp;Humidity;BMP_temperature;BMP_pressure;BME280_temperature;BME280_humidity;BME280_pressure;Samples;Min_cycle;Max_cycle;Signal;HPM_P1;HPM_P2
2022/06/08 00:02:18;;;;;;;2.40;2.30;;;14.50;99.90;;;;;;5100395;28;20173;-77
2022/06/08 00:04:43;;;;;;;2.63;2.42;;;14.60;99.90;;;;;;5094826;28;20253;-77
2022/06/08 00:07:10;;;;;;;2.65;2.28;;;14.60;99.90;;;;;;5102030;28;20725;-77
2022/06/08 00:09:36;;;;;;;2.03;1.92;;;14.50;99.90;;;;;;5097515;28;20202;-77
2022/06/08 00:12:03;;;;;;;3.80;2.10;;;14.40;99.90;;;;;;5094047;28;20268;-78
2022/06/08 00:14:29;;;;;;;3.40;2.35;;;14.40;99.90;;;;;;5095477;28;20331;-77
2022/06/08 00:16:55;;;;;;;2.33;2.13;;;14.30;99.90;;;;;;5096617;28;20227;-77
2022/06/08 00:19:21;;;;;;;2.10;2.00;;;14.30;99.90;;;;;;5094856;28;20195;-77
2022/06/08 00:21:47;;;;;;;2.00;1.90;;;14.40;99.90;;;;;;5091847;28;20203;-78
2022/06/08 00:24:13;;;;;;;2.20;1.95;;;14.40;99.90;;;;;;5096839;28;20182;-78
2022/06/08 00:26:39;;;;;;;2.47;2.28;;;14.40;99.90;;;;;;5094808;28;20242;-78
2022/06/08 00:29:05;;;;;;;2.90;2.05;;;14.50;99.90;;;;;;5105092;28;20678;-78
2022/06/08 00:31:31;;;;;;;2.67;2.20;;;14.40;99.90;;;;;;5099308;28;20622;-77
2022/06/08 00:33:57;;;;;;;2.40;2.20;;;14.30;99.90;;;;;;5096218;28;20167;-78
2022/06/08 00:36:23;;;;;;;2.50;2.00;;;14.10;99.90;;;;;;5093290;28;20180;-77
2022/06/08 00:38:48;;;;;;;2.35;2.25;;;14.10;99.90;;;;;;5091495;28;20183;-78
2022/06/08 00:41:37;;;;;;;2.05;1.90;;;14.10;99.90;;;;;;5096349;28;20247;-77
2022/06/08 00:44:07;;;;;;;1.90;1.80;;;14.10;99.90;;;;;;5082175;28;20568;-77
2022/06/08 00:46:33;;;;;;;3.92;1.98;;;14.10;99.90;;;;;;5098506;28;20725;-77
2022/06/08 00:49:42;;;;;;;2.22;2.13;;;14.00;99.90;;;;;;5096511;28;20297;-77
2022/06/08 00:52:09;;;;;;;2.47;2.33;;;14.10;99.90;;;;;;5080169;28;20262;-77
2022/06/08 00:54:39;;;;;;;2.40;2.00;;;14.10;99.90;;;;;;5100028;27;20670;-77
2022/06/08 00:57:15;;;;;;;1.85;1.75;;;14.00;99.90;;;;;;5096908;28;20627;-77
2022/06/08 00:59:49;;;;;;;1.80;1.70;;;14.10;99.90;;;;;;5091785;28;20202;-77
2022/06/08 01:02:15;;;;;;;4.07;1.70;;;14.10;99.90;;;;;;5103063;28;20606;-77
2022/06/08 01:04:41;;;;;;;1.80;1.75;;;14.10;99.90;;;;;;5095765;28;20182;-78
2022/06/08 01:07:07;;;;;;;1.85;1.77;;;14.10;99.90;;;;;;5097702;28;20179;-77
2022/06/08 01:09:38;;;;;;;2.00;1.90;;;14.10;99.90;;;;;;5099821;28;20203;-78
2022/06/08 01:12:11;;;;;;;1.70;1.70;;;14.10;99.90;;;;;;5100607;28;20190;-78
2022/06/08 01:14:38;;;;;;;3.50;1.90;;;14.20;99.90;;;;;;5100589;28;20188;-76
2022/06/08 01:17:14;;;;;;;1.90;1.80;;;14.30;99.90;;;;;;5093905;28;20268;-76
2022/06/08 01:19:44;;;;;;;2.00;1.90;;;14.30;99.90;;;;;;5090490;28;20606;-76
2022/06/08 01:22:12;;;;;;;1.73;1.63;;;14.30;99.90;;;;;;5105028;28;20198;-78
2022/06/08 01:24:38;;;;;;;2.03;1.83;;;14.30;99.90;;;;;;5100772;28;20182;-78
2022/06/08 01:27:19;;;;;;;1.45;1.40;;;14.30;99.90;;;;;;5100112;28;20173;-77
2022/06/08 01:30:03;;;;;;;3.25;1.70;;;14.50;99.90;;;;;;5097052;28;20203;-77
2022/06/08 01:32:57;;;;;;;1.90;1.73;;;14.50;99.90;;;;;;5091315;28;20202;-77
2022/06/08 01:35:37;;;;;;;1.70;1.60;;;14.50;99.90;;;;;;5098580;28;20711;-77
2022/06/08 01:38:30;;;;;;;1.60;1.60;;;14.50;99.90;;;;;;5091240;28;20182;-76
2022/06/08 01:41:14;;;;;;;1.98;1.48;;;14.60;99.90;;;;;;5093669;28;20205;-78
2022/06/08 01:44:01;;;;;;;1.80;1.70;;;14.60;99.90;;;;;;5097422;28;20264;-78
2022/06/08 01:46:29;;;;;;;1.92;1.70;;;14.60;99.90;;;;;;5095398;28;20190;-77
2022/06/08 01:49:10;;;;;;;1.48;1.48;;;14.60;99.90;;;;;;5101586;28;20208;-77
2022/06/08 01:51:54;;;;;;;2.05;1.95;;;14.60;99.90;;;;;;5102209;28;20219;-76
2022/06/08 01:54:28;;;;;;;1.42;1.40;;;14.60;99.90;;;;;;5098963;28;20652;-77
2022/06/08 01:57:15;;;;;;;1.67;1.55;;;14.60;99.90;;;;;;5091907;28;20186;-77
2022/06/08 01:59:47;;;;;;;1.77;1.77;;;14.60;99.90;;;;;;5095209;28;20181;-77
2022/06/08 02:02:22;;;;;;;1.35;1.35;;;14.70;99.90;;;;;;5094047;28;20246;-77
2022/06/08 02:04:50;;;;;;;1.42;1.38;;;14.70;99.90;;;;;;5093086;28;20178;-77
2022/06/08 02:07:21;;;;;;;3.13;1.90;;;14.70;99.90;;;;;;5095551;28;20189;-77
2022/06/08 02:09:58;;;;;;;2.20;2.10;;;14.60;99.90;;;;;;5090951;28;20210;-77
2022/06/08 02:12:26;;;;;;;2.13;1.92;;;14.60;99.90;;;;;;5101214;28;20177;-77
2022/06/08 02:15:18;;;;;;;2.42;2.22;;;14.50;99.90;;;;;;5096734;28;20262;-77
2022/06/08 02:17:50;;;;;;;2.25;2.15;;;14.50;99.90;;;;;;5093662;28;20191;-77
2022/06/08 02:20:23;;;;;;;2.55;1.90;;;14.60;99.90;;;;;;5091564;28;20198;-77
2022/06/08 02:22:58;;;;;;;2.30;2.20;;;14.60;99.90;;;;;;5101849;28;20238;-76
2022/06/08 02:25:24;;;;;;;2.90;1.92;;;14.50;99.90;;;;;;5095354;28;20189;-77
2022/06/08 02:28:00;;;;;;;1.90;1.80;;;14.50;99.90;;;;;;5091861;28;20198;-77
2022/06/08 02:30:29;;;;;;;1.70;1.60;;;14.50;99.90;;;;;;5102602;28;20271;-77
2022/06/08 02:35:58;;;;;;;2.08;1.88;;;14.50;99.90;;;;;;5096346;28;20199;-77
2022/06/08 02:38:36;;;;;;;3.13;2.17;;;14.50;99.90;;;;;;5092858;28;20214;-78
2022/06/08 02:41:06;;;;;;;2.30;2.20;;;14.40;99.90;;;;;;5095226;28;20193;-78
2022/06/08 02:43:41;;;;;;;2.92;2.15;;;14.40;99.90;;;;;;5107187;28;20660;-77
2022/06/08 02:46:13;;;;;;;2.30;2.20;;;14.40;99.90;;;;;;5087876;28;20181;-76
2022/06/08 02:48:39;;;;;;;2.55;2.30;;;14.40;99.90;;;;;;5092606;28;20676;-78
2022/06/08 02:51:04;;;;;;;2.13;2.03;;;14.40;99.90;;;;;;5093494;28;20221;-77
2022/06/08 02:53:30;;;;;;;2.20;2.05;;;14.40;99.90;;;;;;5094129;28;20171;-78
2022/06/08 02:56:05;;;;;;;3.67;2.50;;;14.40;99.90;;;;;;5093489;28;20175;-77
2022/06/08 02:58:40;;;;;;;2.17;2.08;;;14.50;99.90;;;;;;5092696;28;20191;-76
2022/06/08 03:01:21;;;;;;;4.20;2.70;;;14.40;99.90;;;;;;5082403;28;20229;-77
2022/06/08 03:03:52;;;;;;;2.20;2.00;;;14.40;99.90;;;;;;5076887;28;20179;-77
2022/06/08 03:06:42;;;;;;;3.47;2.38;;;14.40;99.90;;;;;;5080110;28;20191;-77
2022/06/08 03:09:13;;;;;;;3.08;2.30;;;14.40;99.90;;;;;;5081129;28;20209;-77
2022/06/08 03:11:45;;;;;;;2.78;2.58;;;14.50;99.90;;;;;;5081801;28;20203;-78
2022/06/08 03:14:13;;;;;;;2.97;2.70;;;14.50;99.90;;;;;;5085369;28;20575;-77
2022/06/08 03:16:59;;;;;;;2.92;2.72;;;14.40;99.90;;;;;;5086775;28;20701;-77
2022/06/08 03:19:27;;;;;;;3.13;2.65;;;14.50;99.90;;;;;;5078746;28;20186;-76
2022/06/08 03:21:54;;;;;;;4.10;2.40;;;14.40;99.90;;;;;;5082185;28;20255;-77
2022/06/08 03:24:21;;;;;;;2.63;2.42;;;14.40;99.90;;;;;;5090703;28;20182;-77
2022/06/08 03:26:52;;;;;;;5.57;2.83;;;14.40;99.90;;;;;;5091900;28;20174;-76
2022/06/08 03:29:18;;;;;;;2.75;2.55;;;14.40;99.90;;;;;;5090259;28;20205;-77
2022/06/08 03:31:44;;;;;;;9.48;2.75;;;14.40;99.90;;;;;;5091014;28;20612;-77
2022/06/08 03:34:10;;;;;;;3.58;2.80;;;14.40;99.90;;;;;;5088966;28;20258;-77
2022/06/08 03:36:35;;;;;;;4.65;3.13;;;14.40;99.90;;;;;;5084201;28;20175;-76
2022/06/08 03:39:01;;;;;;;2.78;2.55;;;14.30;99.90;;;;;;5082755;28;20184;-77
2022/06/08 03:41:27;;;;;;;2.83;2.50;;;14.40;99.90;;;;;;5081006;28;20222;-77
2022/06/08 03:43:53;;;;;;;8.30;2.85;;;14.60;99.90;;;;;;5084770;28;20175;-77
2022/06/08 03:46:19;;;;;;;2.65;2.40;;;14.60;99.90;;;;;;5079921;28;20522;-77
2022/06/08 03:48:45;;;;;;;4.50;2.30;;;14.60;99.90;;;;;;5081569;28;20203;-77
2022/06/08 03:51:14;;;;;;;4.00;2.58;;;14.70;99.90;;;;;;5082106;28;20198;-77
2022/06/08 03:53:47;;;;;;;2.65;2.40;;;14.80;99.90;;;;;;5090699;28;20231;-77
2022/06/08 03:56:17;;;;;;;2.33;2.13;;;14.90;99.90;;;;;;5090484;28;20174;-77
2022/06/08 03:58:43;;;;;;;2.88;2.05;;;14.90;99.90;;;;;;5084588;28;20258;-77
2022/06/08 04:01:10;;;;;;;2.95;2.40;;;15.00;99.90;;;;;;5080657;28;20202;-77
2022/06/08 04:03:36;;;;;;;2.45;2.25;;;14.90;99.90;;;;;;5079127;28;20194;-77
2022/06/08 04:06:01;;;;;;;2.17;2.08;;;14.90;99.90;;;;;;5081220;28;20179;-77
2022/06/08 04:08:27;;;;;;;2.90;2.17;;;14.90;99.90;;;;;;5088545;28;20548;-77
2022/06/08 04:10:53;;;;;;;3.13;2.05;;;14.90;99.90;;;;;;5081528;28;20228;-76
2022/06/08 04:13:20;;;;;;;2.92;2.20;;;15.00;99.90;;;;;;5078781;28;20183;-76
2022/06/08 04:15:45;;;;;;;3.08;1.90;;;15.00;99.90;;;;;;5079953;28;20294;-76
2022/06/08 04:18:18;;;;;;;2.25;2.15;;;15.10;99.90;;;;;;5091141;28;20218;-76
2022/06/08 04:20:47;;;;;;;2.65;1.77;;;15.20;99.90;;;;;;5095127;28;20222;-77
2022/06/08 04:23:13;;;;;;;2.45;2.20;;;15.20;99.90;;;;;;5080745;28;20673;-77
2022/06/08 04:25:41;;;;;;;2.00;1.90;;;15.10;99.90;;;;;;5083014;28;20175;-77
2022/06/08 04:28:07;;;;;;;4.00;1.90;;;15.20;99.90;;;;;;5088476;28;20209;-77
2022/06/08 04:30:34;;;;;;;4.88;1.92;;;15.20;99.90;;;;;;5092096;28;20568;-77
2022/06/08 04:33:00;;;;;;;1.80;1.70;;;15.30;99.90;;;;;;5086314;28;20183;-77
2022/06/08 04:35:26;;;;;;;2.28;1.80;;;15.40;99.90;;;;;;5093781;28;20174;-78
2022/06/08 04:37:52;;;;;;;2.58;2.33;;;15.50;99.90;;;;;;5094122;28;20213;-77
2022/06/08 04:40:18;;;;;;;1.95;1.63;;;15.60;99.90;;;;;;5093534;28;20204;-77
2022/06/08 04:42:44;;;;;;;1.58;1.48;;;15.60;99.90;;;;;;5093067;28;20174;-77
2022/06/08 04:45:11;;;;;;;3.20;1.92;;;15.50;99.90;;;;;;5100617;28;20265;-77
2022/06/08 04:47:37;;;;;;;2.10;1.90;;;15.60;99.90;;;;;;5093600;28;20175;-77
2022/06/08 04:50:04;;;;;;;1.50;1.30;;;15.50;99.90;;;;;;5097768;28;20233;-78
2022/06/08 04:52:31;;;;;;;1.60;1.52;;;15.60;99.90;;;;;;5084996;28;20188;-76
2022/06/08 04:54:56;;;;;;;1.45;1.35;;;15.60;99.90;;;;;;5094288;28;20183;-76
2022/06/08 04:57:22;;;;;;;2.45;1.30;;;15.70;99.90;;;;;;5085696;28;20219;-77
2022/06/08 04:59:48;;;;;;;1.42;1.20;;;15.70;99.90;;;;;;5084801;28;20194;-77
2022/06/08 05:02:42;;;;;;;1.58;1.48;;;15.70;99.90;;;;;;5093118;28;20209;-79
2022/06/08 05:05:33;;;;;;;5.53;1.52;;;15.70;99.90;;;;;;5101439;28;20194;-79
2022/06/08 05:08:06;;;;;;;1.55;1.55;;;15.70;99.90;;;;;;5098322;28;20182;-79
2022/06/08 05:10:33;;;;;;;2.72;1.60;;;15.70;99.90;;;;;;5102318;28;20198;-78
2022/06/08 05:13:13;;;;;;;1.70;1.45;;;15.70;99.90;;;;;;5106645;28;20200;-79
2022/06/08 05:15:41;;;;;;;1.92;1.70;;;15.60;99.90;;;;;;5102170;28;20197;-78
2022/06/08 05:18:09;;;;;;;3.03;1.52;;;15.60;99.90;;;;;;5086340;28;20219;-78
2022/06/08 05:20:37;;;;;;;1.80;1.70;;;15.60;99.90;;;;;;5087369;28;20259;-78
2022/06/08 05:23:04;;;;;;;1.45;1.45;;;15.60;99.90;;;;;;5088496;28;20523;-78
2022/06/08 05:25:37;;;;;;;2.08;1.75;;;15.70;99.90;;;;;;5084781;28;20186;-79
2022/06/08 05:28:04;;;;;;;1.75;1.65;;;15.70;99.90;;;;;;5088936;28;20198;-78
2022/06/08 05:30:32;;;;;;;1.90;1.85;;;15.70;99.90;;;;;;5087289;28;20203;-77
2022/06/08 05:32:58;;;;;;;1.75;1.48;;;15.80;99.90;;;;;;5095169;28;20174;-77
2022/06/08 05:35:24;;;;;;;1.73;1.60;;;15.90;99.90;;;;;;5089838;28;20186;-78
2022/06/08 05:37:50;;;;;;;1.42;1.40;;;16.00;99.90;;;;;;5082648;28;20680;-77
2022/06/08 05:40:16;;;;;;;1.75;1.67;;;16.10;99.90;;;;;;5102389;28;20204;-79
2022/06/08 05:42:42;;;;;;;1.52;1.52;;;16.10;99.90;;;;;;5093326;28;20567;-81
2022/06/08 05:45:14;;;;;;;2.03;1.70;;;16.10;99.90;;;;;;5094444;28;20182;-77
2022/06/08 05:47:39;;;;;;;1.85;1.80;;;16.20;99.90;;;;;;5096614;28;20235;-77
2022/06/08 05:50:06;;;;;;;1.63;1.50;;;16.30;99.90;;;;;;5097287;28;20618;-76
2022/06/08 05:52:31;;;;;;;3.75;1.42;;;16.50;99.90;;;;;;5085735;28;20179;-78
2022/06/08 05:54:59;;;;;;;3.00;1.55;;;16.50;99.90;;;;;;5096515;28;20224;-74
2022/06/08 05:57:27;;;;;;;1.90;1.50;;;16.60;99.90;;;;;;5089934;28;20185;-78
2022/06/08 05:59:53;;;;;;;1.58;1.48;;;16.70;99.90;;;;;;5082062;28;20674;-73
2022/06/08 06:02:19;;;;;;;1.63;1.40;;;16.80;99.90;;;;;;5093009;28;20196;-75
2022/06/08 06:04:45;;;;;;;1.50;1.40;;;16.80;99.90;;;;;;5091521;28;20195;-75
2022/06/08 06:07:11;;;;;;;1.70;1.40;;;16.80;99.90;;;;;;5097824;28;20182;-76
2022/06/08 06:09:38;;;;;;;1.63;1.52;;;16.80;99.90;;;;;;5087939;28;20240;-76
2022/06/08 06:12:05;;;;;;;1.55;1.33;;;16.90;99.90;;;;;;5081866;28;20208;-74
2022/06/08 06:14:31;;;;;;;1.05;1.05;;;17.10;99.90;;;;;;5091989;28;20273;-74
2022/06/08 06:16:56;;;;;;;1.85;1.30;;;17.10;99.90;;;;;;5082604;28;20808;-74
2022/06/08 06:19:23;;;;;;;1.30;1.20;;;17.30;99.90;;;;;;5091458;28;20182;-75
2022/06/08 06:21:48;;;;;;;3.17;1.55;;;17.40;99.90;;;;;;5091202;28;20751;-75
2022/06/08 06:24:15;;;;;;;1.30;1.25;;;17.40;99.90;;;;;;5086133;28;20190;-74
2022/06/08 06:26:41;;;;;;;1.65;1.33;;;17.60;99.90;;;;;;5085942;28;20187;-74
2022/06/08 06:29:06;;;;;;;1.35;1.25;;;17.60;99.90;;;;;;5084516;28;20295;-75
2022/06/08 06:31:55;;;;;;;1.65;1.55;;;17.70;99.90;;;;;;5078861;28;20351;-75
2022/06/08 06:34:24;;;;;;;1.00;1.00;;;17.80;99.90;;;;;;5083737;28;20236;-75
2022/06/08 06:36:53;;;;;;;1.50;1.23;;;17.90;99.90;;;;;;5084807;28;20179;-75
2022/06/08 06:39:19;;;;;;;1.20;1.10;;;18.10;99.90;;;;;;5082603;28;20178;-75
2022/06/08 06:41:46;;;;;;;2.20;1.10;;;18.20;99.90;;;;;;5090864;28;20216;-75
2022/06/08 06:44:11;;;;;;;2.60;1.25;;;18.40;99.90;;;;;;5093619;28;20592;-75
2022/06/08 06:46:37;;;;;;;1.50;0.95;;;18.60;99.90;;;;;;5085658;28;20178;-75
2022/06/08 06:49:03;;;;;;;1.30;1.20;;;18.60;99.90;;;;;;5083287;28;20567;-75
2022/06/08 06:51:28;;;;;;;1.75;1.08;;;18.50;99.90;;;;;;5084326;28;20191;-75
2022/06/08 06:53:54;;;;;;;3.58;1.23;;;18.40;99.90;;;;;;5085380;28;20585;-76
2022/06/08 06:56:20;;;;;;;1.30;1.10;;;18.60;99.90;;;;;;5079100;28;20186;-75
2022/06/08 06:58:49;;;;;;;1.65;1.10;;;18.90;99.90;;;;;;5078189;28;20195;-74
2022/06/08 07:01:17;;;;;;;1.83;1.45;;;19.30;99.90;;;;;;5093343;28;20296;-76
2022/06/08 07:03:44;;;;;;;2.60;1.40;;;19.60;99.90;;;;;;5087117;28;20210;-75
2022/06/08 07:06:10;;;;;;;2.80;1.30;;;19.80;99.90;;;;;;5091186;28;20234;-75
2022/06/08 07:08:36;;;;;;;1.58;1.48;;;20.00;99.90;;;;;;5097356;28;20700;-74
2022/06/08 07:13:47;;;;;;;3.00;1.17;;;20.10;99.90;;;;;;5088979;28;20274;-75
2022/06/08 07:16:13;;;;;;;1.23;1.23;;;20.20;99.90;;;;;;5092752;28;20771;-76
2022/06/08 07:18:39;;;;;;;3.13;1.13;;;20.50;99.90;;;;;;5085060;28;20195;-75
2022/06/08 07:21:05;;;;;;;1.50;1.40;;;20.80;99.90;;;;;;5087719;28;20708;-76
2022/06/08 07:23:30;;;;;;;1.42;1.15;;;21.00;99.90;;;;;;5081632;28;20556;-73
2022/06/08 07:25:56;;;;;;;1.42;1.33;;;21.40;99.90;;;;;;5094608;28;20266;-73
2022/06/08 07:28:22;;;;;;;3.67;1.23;;;21.90;99.90;;;;;;5089517;28;20203;-74
2022/06/08 07:30:47;;;;;;;1.92;1.30;;;22.40;99.90;;;;;;5081041;28;20225;-74
2022/06/08 07:33:13;;;;;;;2.50;1.50;;;22.60;99.90;;;;;;5084764;28;20264;-73
2022/06/08 07:35:39;;;;;;;1.83;1.33;;;22.80;99.90;;;;;;5083825;28;20181;-74
2022/06/08 07:38:05;;;;;;;1.65;1.48;;;23.00;99.90;;;;;;5088682;28;20171;-74
2022/06/08 07:40:31;;;;;;;5.00;1.50;;;23.20;99.90;;;;;;5085639;28;20199;-78
2022/06/08 07:42:57;;;;;;;1.20;1.05;;;23.60;99.90;;;;;;5088971;28;20176;-76
2022/06/08 07:45:22;;;;;;;1.10;1.00;;;23.90;99.90;;;;;;5081872;28;20214;-76
2022/06/08 07:50:32;;;;;;;2.13;1.15;;;24.80;99.90;;;;;;5079624;28;20746;-75
2022/06/08 07:52:58;;;;;;;4.25;1.50;;;24.60;99.90;;;;;;5081800;28;20191;-76
2022/06/08 07:55:24;;;;;;;1.10;1.00;;;24.50;99.90;;;;;;5087302;28;20187;-77
2022/06/08 07:57:50;;;;;;;2.33;1.05;;;24.20;99.90;;;;;;5088945;28;20183;-77
2022/06/08 08:00:17;;;;;;;2.60;1.30;;;23.70;99.90;;;;;;5089610;28;20638;-75
2022/06/08 08:02:43;;;;;;;4.22;1.30;;;23.40;99.90;;;;;;5087969;28;20660;-76
2022/06/08 08:05:11;;;;;;;1.48;1.30;;;23.10;99.90;;;;;;5088216;28;20195;-76
2022/06/08 08:07:38;;;;;;;1.38;1.30;;;22.70;99.90;;;;;;5080292;28;20243;-76
2022/06/08 08:10:06;;;;;;;2.35;1.60;;;22.40;99.90;;;;;;5094326;28;20214;-77
2022/06/08 08:12:32;;;;;;;1.63;1.30;;;22.00;99.90;;;;;;5091004;28;20557;-78
2022/06/08 08:14:57;;;;;;;1.38;1.27;;;22.10;99.90;;;;;;5087137;28;20190;-78
2022/06/08 08:17:23;;;;;;;2.60;1.48;;;22.20;99.90;;;;;;5087952;28;20191;-81
2022/06/08 08:19:49;;;;;;;2.13;1.48;;;22.30;99.90;;;;;;5084868;28;20718;-77
2022/06/08 08:22:15;;;;;;;4.53;1.40;;;22.70;99.90;;;;;;5079298;28;20203;-75
2022/06/08 08:24:41;;;;;;;1.77;1.20;;;22.90;99.90;;;;;;5077424;28;20675;-75
2022/06/08 08:27:07;;;;;;;1.30;1.20;;;23.40;99.90;;;;;;5081666;28;20179;-76
2022/06/08 08:29:33;;;;;;;2.08;1.55;;;23.80;99.90;;;;;;5079478;28;20212;-76
2022/06/08 08:31:59;;;;;;;1.27;1.10;;;24.20;99.90;;;;;;5081243;28;20190;-77
2022/06/08 08:34:25;;;;;;;2.60;1.35;;;24.30;99.90;;;;;;5077703;28;20179;-77
2022/06/08 08:36:51;;;;;;;2.28;1.30;;;24.40;99.90;;;;;;5081069;28;20203;-76
2022/06/08 08:39:17;;;;;;;1.73;1.30;;;24.30;99.90;;;;;;5081332;28;20261;-78
2022/06/08 08:44:45;;;;;;;2.72;1.60;;;24.50;99.90;;;;;;5082761;28;20556;-77
2022/06/08 08:47:35;;;;;;;1.70;1.17;;;24.70;99.90;;;;;;5082059;28;20201;-77
2022/06/08 08:50:00;;;;;;;1.35;1.25;;;24.70;99.90;;;;;;5079653;28;20214;-77
2022/06/08 08:52:58;;;;;;;0.90;0.85;;;24.90;99.90;;;;;;5080485;28;20185;-76
2022/06/08 08:55:41;;;;;;;1.75;1.27;;;25.10;99.90;;;;;;5090138;28;20182;-76
2022/06/08 08:58:10;;;;;;;5.07;1.50;;;25.40;99.90;;;;;;5082560;28;20189;-76
2022/06/08 09:00:54;;;;;;;4.07;1.58;;;25.30;99.90;;;;;;5086726;28;20224;-76
2022/06/08 09:03:25;;;;;;;4.03;1.27;;;25.20;99.90;;;;;;5079118;28;20182;-76
2022/06/08 09:05:54;;;;;;;3.03;1.38;;;24.80;99.90;;;;;;5081035;28;20167;-76
2022/06/08 09:08:21;;;;;;;1.17;1.17;;;24.70;99.90;;;;;;5083629;28;20231;-75
2022/06/08 09:10:48;;;;;;;3.22;1.00;;;24.80;99.90;;;;;;5081781;28;20198;-76
2022/06/08 09:13:32;;;;;;;1.38;1.00;;;24.80;99.90;;;;;;5088504;28;20193;-76
2022/06/08 09:15:59;;;;;;;1.30;1.20;;;25.00;99.90;;;;;;5085809;28;20720;-74
2022/06/08 09:18:39;;;;;;;1.52;1.27;;;25.20;99.90;;;;;;5085319;28;20186;-75
2022/06/08 09:21:22;;;;;;;2.42;1.10;;;25.80;99.90;;;;;;5085983;28;20206;-74
2022/06/08 09:23:54;;;;;;;1.35;1.25;;;26.40;96.90;;;;;;5083726;28;20179;-74
2022/06/08 09:26:25;;;;;;;2.10;0.80;;;26.60;97.10;;;;;;5082097;28;20605;-74
2022/06/08 09:28:58;;;;;;;3.42;0.90;;;26.90;93.30;;;;;;5078371;28;20217;-74
2022/06/08 09:31:25;;;;;;;1.48;1.27;;;27.00;90.90;;;;;;5084502;28;20619;-76
2022/06/08 09:34:15;;;;;;;1.40;0.70;;;26.90;90.60;;;;;;5084910;28;20170;-76
2022/06/08 09:36:42;;;;;;;1.40;0.90;;;26.80;92.50;;;;;;5087070;28;20217;-75
2022/06/08 09:39:15;;;;;;;1.05;0.98;;;26.90;89.00;;;;;;5090445;28;20179;-74
2022/06/08 09:41:48;;;;;;;0.85;0.85;;;27.50;86.50;;;;;;5085004;28;20656;-74
2022/06/08 09:44:29;;;;;;;2.80;1.00;;;28.00;83.50;;;;;;5087885;28;20227;-74
2022/06/08 09:52:47;;;;;;;1.17;0.90;;;27.90;83.00;;;;;;5083575;28;20219;-74
2022/06/08 09:55:32;;;;;;;0.90;0.90;;;27.50;83.20;;;;;;5083784;28;20174;-75
2022/06/08 09:58:34;;;;;;;1.05;1.05;;;28.40;83.90;;;;;;5087747;28;20197;-76
2022/06/08 10:01:17;;;;;;;1.30;1.20;;;31.20;78.50;;;;;;5091881;28;20269;-74
2022/06/08 10:03:58;;;;;;;0.85;0.85;;;31.70;70.70;;;;;;5089056;28;20716;-76
2022/06/08 10:06:42;;;;;;;1.92;1.70;;;30.80;66.90;;;;;;5083465;28;20208;-78
2022/06/08 10:09:26;;;;;;;1.75;1.00;;;29.90;68.40;;;;;;5080828;28;20202;-73
2022/06/08 10:12:19;;;;;;;1.02;0.95;;;30.70;69.00;;;;;;5082640;28;20203;-75
2022/06/08 10:15:02;;;;;;;0.80;0.80;;;32.70;68.10;;;;;;5087349;28;20207;-75
2022/06/08 10:17:47;;;;;;;1.05;1.02;;;34.20;60.70;;;;;;5089713;28;20208;-77
2022/06/08 10:20:27;;;;;;;0.80;0.80;;;35.70;57.40;;;;;;5087318;28;20174;-77
2022/06/08 10:22:58;;;;;;;0.70;0.52;;;37.10;52.70;;;;;;5098385;28;20211;-73
2022/06/08 10:25:31;;;;;;;1.10;0.98;;;37.70;50.50;;;;;;5084482;28;20177;-72
2022/06/08 10:28:05;;;;;;;1.77;1.00;;;36.30;49.90;;;;;;5090488;28;20239;-72
2022/06/08 10:30:54;;;;;;;1.33;0.77;;;36.60;52.30;;;;;;5088473;28;20692;-70
2022/06/08 10:33:31;;;;;;;2.55;1.10;;;37.50;48.00;;;;;;5088721;28;20658;-70
2022/06/08 10:35:58;;;;;;;1.23;0.98;;;38.00;47.50;;;;;;5096487;28;20177;-70
2022/06/08 10:38:33;;;;;;;1.17;1.02;;;39.20;46.90;;;;;;5095413;28;20657;-70
2022/06/08 10:42:39;;;;;;;1.20;0.90;;;39.00;46.20;;;;;;5093883;28;20206;-70
2022/06/08 10:43:51;;;;;;;1.23;0.82;;;38.70;44.80;;;;;;5096361;28;20185;-71
2022/06/08 10:46:45;;;;;;;2.25;0.90;;;38.10;45.90;;;;;;5094919;28;20667;-72
2022/06/08 10:49:30;;;;;;;1.85;0.90;;;37.00;46.30;;;;;;5102110;28;20589;-73
2022/06/08 10:52:19;;;;;;;1.55;1.00;;;36.10;48.70;;;;;;5099196;28;20198;-70
2022/06/08 10:54:53;;;;;;;1.45;1.10;;;36.40;47.70;;;;;;5093204;28;20838;-71
2022/06/08 10:57:43;;;;;;;2.05;0.80;;;35.60;47.80;;;;;;5094151;28;20182;-71
2022/06/08 11:00:18;;;;;;;1.25;0.85;;;33.90;50.10;;;;;;5085630;28;20193;-75
2022/06/08 11:02:46;;;;;;;3.05;0.85;;;32.70;51.10;;;;;;5088741;28;20170;-73
2022/06/08 11:05:32;;;;;;;0.95;0.60;;;31.30;53.30;;;;;;5092871;28;20236;-76
2022/06/08 11:08:10;;;;;;;3.60;0.75;;;30.40;54.10;;;;;;5082582;28;20197;-74
2022/06/08 11:10:42;;;;;;;1.23;0.90;;;29.70;57.40;;;;;;5085696;28;20670;-74
2022/06/08 11:13:19;;;;;;;1.55;1.20;;;30.90;59.10;;;;;;5088316;28;20216;-76
2022/06/08 11:16:06;;;;;;;3.45;0.95;;;32.10;52.70;;;;;;5089527;28;20209;-75
2022/06/08 11:18:42;;;;;;;8.82;1.15;;;33.70;53.30;;;;;;5089770;28;20182;-76
2022/06/08 11:21:16;;;;;;;0.75;0.65;;;35.30;48.60;;;;;;5088833;28;20294;-72
2022/06/08 11:23:50;;;;;;;0.73;0.70;;;36.50;48.90;;;;;;5090710;28;20177;-70
2022/06/08 11:26:23;;;;;;;1.52;0.90;;;37.00;47.40;;;;;;5090464;28;20181;-70
2022/06/08 11:28:59;;;;;;;1.40;0.80;;;38.20;44.90;;;;;;5095300;28;20198;-70
2022/06/08 11:31:28;;;;;;;1.13;0.98;;;39.00;45.80;;;;;;5089196;28;20672;-70
2022/06/08 11:34:10;;;;;;;0.88;0.70;;;39.50;43.10;;;;;;5087319;28;20281;-70
2022/06/08 11:37:00;;;;;;;0.98;0.80;;;40.50;42.20;;;;;;5090205;28;20301;-70
2022/06/08 11:39:45;;;;;;;0.80;0.70;;;40.80;38.70;;;;;;5086584;28;20183;-70
2022/06/08 11:42:10;;;;;;;0.90;0.70;;;40.70;38.10;;;;;;5080094;28;20214;-70
2022/06/08 11:44:43;;;;;;;1.90;1.10;;;40.20;42.20;;;;;;5090965;28;20190;-70
2022/06/08 11:47:19;;;;;;;0.73;0.73;;;40.20;40.90;;;;;;5091457;28;20181;-71
2022/06/08 11:49:54;;;;;;;1.23;0.82;;;39.00;42.50;;;;;;5083788;28;20209;-70
2022/06/08 11:52:33;;;;;;;1.10;0.90;;;37.40;43.70;;;;;;5081543;28;20189;-71
2022/06/08 11:55:07;;;;;;;1.95;0.57;;;35.50;45.80;;;;;;5091437;28;20175;-71
2022/06/08 11:57:33;;;;;;;1.23;0.60;;;34.00;47.40;;;;;;5094193;28;20209;-70
2022/06/08 12:00:00;;;;;;;1.48;0.82;;;33.10;49.20;;;;;;5092299;28;20261;-70
2022/06/08 12:02:35;;;;;;;1.05;0.90;;;33.00;50.20;;;;;;5094060;28;20205;-71
2022/06/08 12:05:02;;;;;;;2.10;0.60;;;32.10;51.50;;;;;;5091212;28;20181;-71
2022/06/08 12:07:35;;;;;;;1.63;1.10;;;31.90;51.80;;;;;;5086103;28;20175;-70
2022/06/08 12:10:06;;;;;;;1.50;0.90;;;32.00;52.60;;;;;;5084314;28;20539;-70
2022/06/08 12:12:32;;;;;;;1.00;0.70;;;32.90;51.20;;;;;;5087989;28;20186;-70
2022/06/08 12:15:36;;;;;;;1.30;0.80;;;33.00;50.20;;;;;;5096136;28;20186;-70
2022/06/08 12:18:42;;;;;;;0.52;0.52;;;33.10;52.40;;;;;;5090733;28;20174;-71
2022/06/08 12:21:17;;;;;;;0.88;0.88;;;32.50;50.70;;;;;;5079279;28;20205;-70
2022/06/08 12:23:54;;;;;;;0.77;0.73;;;32.10;52.50;;;;;;5091340;28;20222;-70
2022/06/08 12:26:22;;;;;;;1.10;0.85;;;31.90;52.20;;;;;;5094323;28;20185;-70
2022/06/08 12:29:14;;;;;;;0.77;0.70;;;32.80;54.00;;;;;;5090802;28;20206;-70
2022/06/08 12:31:39;;;;;;;0.88;0.85;;;34.10;49.50;;;;;;5081659;28;20203;-72
2022/06/08 12:34:26;;;;;;;0.98;0.90;;;36.60;45.60;;;;;;5087851;28;20240;-71
2022/06/08 12:36:52;;;;;;;0.93;0.60;;;37.60;43.40;;;;;;5087934;28;20178;-70
2022/06/08 12:39:18;;;;;;;1.40;0.63;;;38.20;44.10;;;;;;5083933;28;20188;-71
2022/06/08 12:41:48;;;;;;;0.77;0.77;;;39.70;41.60;;;;;;5085514;28;20208;-70
2022/06/08 12:44:20;;;;;;;2.05;1.15;;;39.40;40.50;;;;;;5091846;28;20454;-69
2022/06/08 12:47:12;;;;;;;0.60;0.60;;;38.30;41.50;;;;;;5086331;28;20205;-69
2022/06/08 12:50:01;;;;;;;1.48;0.75;;;36.20;44.00;;;;;;5081462;28;20202;-70
2022/06/08 12:52:32;;;;;;;0.80;0.75;;;34.10;47.00;;;;;;5093911;28;20176;-73
2022/06/08 12:54:59;;;;;;;1.50;0.82;;;32.40;50.80;;;;;;5092893;28;20225;-72
2022/06/08 12:57:31;;;;;;;0.93;0.90;;;31.50;52.70;;;;;;5081514;28;20182;-73
2022/06/08 12:59:59;;;;;;;1.05;0.90;;;31.50;54.00;;;;;;5096933;28;20183;-72
2022/06/08 13:02:38;;;;;;;0.90;0.90;;;32.10;51.30;;;;;;5090227;28;20185;-70
2022/06/08 13:05:17;;;;;;;1.00;0.90;;;32.40;53.20;;;;;;5088879;28;20229;-71
2022/06/08 13:07:43;;;;;;;1.45;1.15;;;33.60;49.90;;;;;;5098392;28;20239;-70
2022/06/08 13:10:09;;;;;;;0.93;0.90;;;33.10;49.30;;;;;;5090811;28;20614;-70
2022/06/08 13:12:53;;;;;;;1.27;0.70;;;32.20;51.00;;;;;;5085902;28;20630;-70
2022/06/08 13:15:20;;;;;;;1.73;0.77;;;31.60;51.90;;;;;;5090448;28;20184;-70
2022/06/08 13:17:46;;;;;;;2.20;1.08;;;31.00;52.40;;;;;;5094275;28;20186;-70
2022/06/08 13:20:21;;;;;;;0.50;0.50;;;30.50;54.10;;;;;;5089666;28;20187;-73
2022/06/08 13:22:47;;;;;;;0.82;0.82;;;30.20;55.40;;;;;;5093560;28;20919;-70
2022/06/08 13:25:18;;;;;;;1.58;0.80;;;33.80;52.40;;;;;;5095177;28;20185;-71
2022/06/08 13:27:45;;;;;;;0.75;0.70;;;39.40;46.20;;;;;;5087286;28;20197;-74
2022/06/08 13:30:31;;;;;;;0.45;0.45;;;44.50;40.10;;;;;;5085203;28;20206;-72